Daly City, CA (94014)

2:41 AM PDT on October 26, 2014 (GMT -0700)
Crocker Amazon | Change Station
CLOSE
Current Station
Personal Weather Station
Location: San Francisco, CA
Elevation: 420 ft
Nearby Weather Stations

Elev 420 ft 37.71 °N, 122.44 °W | Updated 1 minute ago

Overcast
Overcast
55.9 °F
Feels Like 55.9 °F
N
1.7
Wind Variable Wind from West

Today
High -- | Low -- °F
--% Chance of Precip.
Yesterday
High -- | Low -- °F
Precip. -- in
7:28 AM 6:17 PM
Waxing Crescent, 7% visible
Pressure 30.16 in
Visibility 10.0 miles
Clouds Mostly Cloudy 9000 ft
Dew Point 53 °F
Humidity 89%
Rainfall 0.00 in
Snow Depth Not available.
UV 0 out of 12
Pollen .10 out of 12
Ozone Good
PM2.5 Good
Flu Activity Sporadic
METAR KSFO 260856Z 28007KT 10SM BKN090 17/14 A3016 RMK AO2 SLP212 T01670139 52006 $

More Conditions Fewer Conditions

Pressure 30.16 in
Visibility 10.0 miles
Clouds Mostly Cloudy 9000 ft
Dew Point 53 °F
Humidity 89%
Rainfall 0.00 in
Snow Depth Not available.
UV 0 out of 12
Pollen .10 out of 12
Ozone Good
PM2.5 Good
Flu Activity Sporadic
METAR KSFO 260856Z 28007KT 10SM BKN090 17/14 A3016 RMK AO2 SLP212 T01670139 52006 $

More Conditions Fewer Conditions

10-Day Weather Forecast

Almanac

Astronomy

Oct. 26, 2014 Rise Set
Actual Time 7:28 AM PDT 6:17 PM PDT
Civil Twilight 7:02 AM PDT 6:44 PM PDT
Nautical Twilight 6:31 AM PDT 7:15 PM PDT
Astronomical Twilight 6:00 AM PDT 7:45 PM PDT
Moon 10:10 AM PDT 8:36 PM PDT
Length of Visible Light 11h 42m
Length of Day
10h 49m
Tomorrow will be 2m 12s shorter.
Waxing Crescent, 7% of the Moon is Illuminated
Today
Waxing Crescent
Oct 30
First Quarter
Nov 6
Full
Nov 14
Last Quarter
Nov 22
New

Today's Extremes

State Highs State Lows

Community

WunderPhotos

Upload Photos

1,765,132 photos uploaded!

Nearby

Air Quality

  Air Quality AQ Index Pollutant
Yesterday Good
OZONE
Yesterday Good
PM2.5
Current Good
PM2.5
Current Good
OZONE
Sunday Good
OZONE
Monday Moderate
PM2.5
Tuesday Moderate
PM2.5
Wednesday Moderate
PM2.5

Snow Depth

Station Depth Elevation
Carson Pass 1 in 8500 ft
Blue Lakes 0 in 8000 ft
Echo Peak 4 in 7800 ft
Rubicon #2 2 in 7500 ft
Fallen Leaf 0 in 6300 ft

Earthquake Activity

City Distance Mag. Time & Date
Antioch, California 43 miles 2.7 6:42 AM PDT
2014-10-25
Deer Park, California 57 miles 2.8 6:40 AM PDT
2014-10-25
Coalinga, California 159 miles 2.5 11:01 PM PDT
2014-10-24
Minimum magnitude displayed is 2.5.

Coastal Water Temperatures

Place Temperature
No Stations Reporting

Nearby Weather Stations